This is the latest recevied weather packets stored in our database for station/object N3WAX-1. If no packets are shown the sender has not sent any weather packets the latest 10 day(s).
| Time | Temp. | Humidity | Pressure | Rain* | Wind** | Luminosity | Snow |
|---|---|---|---|---|---|---|---|
| 1777583236 | 16.67° C | 58% | 1008.1 hPa | 0 mm | - | 204 W/m² | - |
| 1777583222 | 16.67° C | 61% | 1008 hPa | 0 mm | - | 269 W/m² | - |
| 1777582313 | 16.67° C | 60% | 1008 hPa | 0 mm | - | 237 W/m² | - |
| 1777580809 | 17.22° C | 58% | 1007.6 hPa | 0 mm | - | 403 W/m² | - |
| 1777579308 | 17.22° C | 62% | 1007.4 hPa | 0 mm | - | 346 W/m² | - |
| 1777578408 | 17.78° C | 60% | 1007.5 hPa | 0 mm | - | 805 W/m² | - |
| 1777577500 | 17.22° C | 62% | 1007.6 hPa | 0 mm | - | 221 W/m² | - |
| 1777577200 | 17.78° C | 65% | 1007.5 hPa | 0 mm | - | 911 W/m² | - |
| 1777571935 | 16.67° C | 69% | 1007.8 hPa | 0 mm | - | 775 W/m² | - |
| 1777571194 | 16.67° C | 70% | 1007.8 hPa | 0 mm | - | 1123 W/m² | - |
| 1777570594 | 16.67° C | 70% | 1007.9 hPa | 0 mm | - | 315 W/m² | - |
| 1777569990 | 15.56° C | 74% | 1008 hPa | 0 mm | - | 420 W/m² | - |
| 1777569391 | 15.56° C | 73% | 1008 hPa | 0 mm | - | 362 W/m² | - |
| 1777569090 | 15.56° C | 73% | 1007.8 hPa | 0 mm | - | 278 W/m² | - |
| 1777567891 | 16.11° C | 72% | 1007.9 hPa | 0 mm | - | 1160 W/m² | - |
| 1777566529 | 15.56° C | 75% | 1008.2 hPa | 0 mm | - | 714 W/m² | - |
| 1777565930 | 15.56° C | 77% | 1008 hPa | 0 mm | - | 369 W/m² | - |
| 1777563974 | 15.56° C | 77% | 1008.3 hPa | 0 mm | - | 967 W/m² | - |
| 1777562440 | 13.89° C | 81% | 1008.7 hPa | 0 mm | - | 464 W/m² | - |
| 1777561073 | 12.78° C | 84% | 1009.2 hPa | 0 mm | - | 336 W/m² | - |
| 1777560627 | 12.78° C | 84% | 1009.1 hPa | 0 mm | - | 239 W/m² | - |
| 1777553008 | 10.56° C | 97% | 1007.8 hPa | 0 mm | - | 114 W/m² | - |
| 1777549355 | 10.56° C | 98% | 1007.8 hPa | 0 mm | - | 118 W/m² | - |
| 1777548754 | 10° C | 98% | 1007.8 hPa | 0 mm | - | 97 W/m² | - |
| 1777547557 | 10° C | 98% | 1007.8 hPa | 0 mm | - | 63 W/m² | - |
* Rain latest hour (hover to see other rain measurements)
** Current wind speed in m/s (hover to see current wind gust speed)